• Join FlightAware (Why Join?)
  • Login
  • US Flag 
Rudolph Flight #1: Arrived! 
05:09AM EST


 

Airport Tracker/Info


-or-


 

Live Flight TrackerFlight Track Log ✈ N904RB ✈ 18-Aug-2013 ✈ KMDW - KCOU

Flight Track Log - Related Links

Times and Time Zones

All times are in EDT time to prevent confusion due to time zone crossing. See the N904RB flight status page for this flight to view local times or setup timezone preferences in your user account.

Time Position Orientation Groundspeed Altitude Reporting Facility
EDT Latitude Longitude Course Direction KTS MPH feet Rate Location/Type
01:53PM 41.8167 -87.7667 285° West 164 189 2,700  Level Chicago TRACON
01:54PM 41.8000 -87.8167 246° West 188 216 3,000 180 Climbing Chicago TRACON
01:55PM 41.7928 -87.8547 256° West 178 205 3,000 -60 Level Chicago Center
01:56PM 41.7681 -87.9258 245° Southwest 196 226 2,900  Descending Chicago Center
01:57PM 41.7378 -88.0094 244° Southwest 207 238 3,000  Climbing Chicago Center
01:58PM 41.8413 -88.1399 285° West  Level FlightAware Approximate
01:58PM 41.7264 -88.0781 257° West 203 234 2,900  Level Chicago Center
01:59PM 41.7267 -88.1425 270° West 189 217 3,800 480 Climbing Chicago Center
02:00PM 41.7369 -88.2028 283° West 178 205 4,000 240 Climbing Chicago Center
02:01PM 41.7539 -88.2731 288° West 190 219 4,300 960 Climbing Chicago Center
02:02PM 41.7706 -88.3428 288° West 175 201 6,100 1,500 Climbing Chicago Center
02:03PM 41.7764 -88.3981 278° West 160 184 7,500 1,320 Climbing Chicago Center
02:04PM 41.7728 -88.4531 265° West 151 174 8,900 1,200 Climbing Chicago Center
02:05PM 41.7722 -88.5103 269° West 153 176 10,000 480 Climbing Chicago Center
02:06PM 41.7683 -88.6025 267° West 203 234 10,000  Level Chicago Center
02:07PM 41.7622 -88.6853 264° West 222 255 10,100 720 Climbing Chicago Center
02:08PM 41.7586 -88.7617 266° West 212 244 11,500 1,200 Climbing Chicago Center
02:09PM 41.7475 -88.8236 257° West 179 206 12,600 960 Climbing Chicago Center
02:10PM 41.7292 -88.8883 249° West 184 212 13,600 960 Climbing Chicago Center
02:11PM 41.7058 -88.9728 250° West 202 232 14,600 1,200 Climbing Chicago Center
02:12PM 41.6908 -89.0353 252° West 185 213 16,100 1,200 Climbing Chicago Center
02:13PM 41.6683 -89.0906 241° Southwest 171 197 17,100 780 Climbing Chicago Center
02:14PM 41.6431 -89.1497 240° Southwest 182 209 17,800 720 Climbing Chicago Center
02:15PM 41.6175 -89.2133 242° Southwest 194 223 18,600 960 Climbing Chicago Center
02:16PM 41.5897 -89.2853 243° Southwest 182 209 19,800 960 Climbing Chicago Center
02:17PM 41.5481 -89.3269 217° Southwest 191 220 20,600 600 Climbing Chicago Center
02:19PM 41.5119 -89.3642 218° Southwest 188 216 21,100 600 Climbing Chicago Center
02:20PM 41.4600 -89.4228 220° Southwest 204 235 21,900 420 Climbing Chicago Center
02:21PM 41.4144 -89.4736 220° Southwest 213 245 22,000  Climbing Chicago Center
02:22PM 41.3636 -89.5311 220° Southwest 236 272 22,000  Level Chicago Center
02:23PM 41.3094 -89.5903 219° Southwest 251 289 22,000  Level Chicago Center
02:24PM 41.2567 -89.6503 221° Southwest 251 289 22,000  Level Chicago Center
02:25PM 41.2022 -89.7097 219° Southwest 253 291 22,000  Level Chicago Center
02:26PM 41.1372 -89.7803 219° Southwest 254 292 22,000  Level Chicago Center
02:27PM 41.0836 -89.8403 220° Southwest 254 292 22,000  Level Chicago Center
02:28PM 41.0297 -89.8997 220° Southwest 255 293 22,000  Level Chicago Center
02:29PM 40.9714 -89.9631 219° Southwest 254 292 22,000  Level Chicago Center
02:30PM 40.9172 -90.0236 220° Southwest 256 295 22,000  Level Chicago Center
02:31PM 40.8633 -90.0822 219° Southwest 254 292 22,000  Level Chicago Center
02:32PM 40.8075 -90.1403 218° Southwest 255 293 22,000  Level Chicago Center
02:33PM 40.7428 -90.2103 219° Southwest 253 291 22,000  Level Chicago Center
02:34PM 40.6922 -90.2672 221° Southwest 259 298 22,000  Level Chicago Center
02:35PM 40.6372 -90.3256 219° Southwest 256 295 22,000  Level Chicago Center
02:36PM 40.5719 -90.3969 220° Southwest 256 295 22,000  Level Chicago Center
02:37PM 40.5175 -90.4567 220° Southwest 256 295 22,000  Level Chicago Center
02:38PM 40.4622 -90.5156 219° Southwest 257 296 22,000  Level Chicago Center
02:39PM 40.4075 -90.5750 220° Southwest 257 296 22,000  Level Chicago Center
02:40PM 40.3631 -90.6217 219° Southwest 253 291 22,000  Level Kansas City Center
02:41PM 40.3075 -90.6803 219° Southwest 255 293 22,000  Level Kansas City Center
02:42PM 40.2417 -90.7519 220° Southwest 256 295 22,000  Level Kansas City Center
02:43PM 40.1867 -90.8106 219° Southwest 255 293 22,000  Level Kansas City Center
02:44PM 40.1306 -90.8689 218° Southwest 257 296 22,000  Level Kansas City Center
02:45PM 40.0750 -90.9281 219° Southwest 258 297 22,000  Level Kansas City Center
02:46PM 40.0175 -90.9867 218° Southwest 259 298 22,000  Level Kansas City Center
02:47PM 39.9628 -91.0461 220° Southwest 258 297 22,000  Level Kansas City Center
02:48PM 39.9069 -91.1050 219° Southwest 258 297 22,000 -120 Level Kansas City Center
02:49PM 39.8411 -91.1739 219° Southwest 257 296 21,800 -540 Descending Kansas City Center
02:50PM 39.7822 -91.2361 219° Southwest 266 306 20,900 -840 Descending Kansas City Center
02:51PM 39.7225 -91.2964 218° Southwest 282 325 20,100 -1,020 Descending Kansas City Center
02:52PM 39.6578 -91.3636 219° Southwest 284 327 18,900 -1,140 Descending Kansas City Center
02:53PM 39.5981 -91.4247 218° Southwest 279 321 17,800 -1,020 Descending Kansas City Center
02:54PM 39.5283 -91.4983 219° Southwest 273 314 16,800 -1,020 Descending Kansas City Center
02:56PM 39.4744 -91.5525 218° Southwest 268 308 15,800 -1,020 Descending Kansas City Center
02:57PM 39.4200 -91.6094 219° Southwest 260 299 14,700 -1,080 Descending Kansas City Center
02:58PM 39.3647 -91.6644 218° Southwest 254 292 13,600 -1,140 Descending Kansas City Center
02:59PM 39.3081 -91.7228 219° Southwest 252 290 12,400 -1,080 Descending Kansas City Center
03:00PM 39.2550 -91.7786 219° Southwest 250 288 11,400 -960 Descending Kansas City Center
03:01PM 39.2014 -91.8322 218° Southwest 238 274 10,500 -1,320 Descending Kansas City Center
03:02PM 39.1406 -91.8925 218° Southwest 231 266 8,800 -1,620 Descending Kansas City Center
03:03PM 39.0961 -91.9475 224° Southwest 225 259 7,300 -1,200 Descending Kansas City Center
03:04PM 39.0731 -92.0175 247° West 214 246 6,300 -660 Descending Kansas City Center
03:05PM 39.0497 -92.0800 244° Southwest 200 230 6,000 -240 Descending Kansas City Center
03:06PM 39.0250 -92.1422 243° Southwest 196 226 5,900 -660 Descending Kansas City Center
03:07PM 38.9919 -92.2044 236° Southwest 208 239 4,700 -1,200 Descending Kansas City Center
03:08PM 38.9342 -92.2239 195° South 216 249 3,500 -1,260 Descending Kansas City Center
03:09PM 38.8781 -92.2342 188° South 209 241 2,200 -1,080 Descending Kansas City Center
03:10PM 38.8294 -92.2406 186° South 191 220 1,400 -840 Descending Kansas City Center
03:12PM 38.8167 -92.2167 237° Southwest  Level FlightAware Approximate
03:19PM 38.8181 -92.2196 237° Southwest  Level Estimated